Terminal Aerodrome Forecast
Issued by NWS Twin Cities, MN

Home | Current Version | Previous Version | Text Only | Print | Product List | Glossary On
Versions: 1 2 3 4 5 6 7 8 9 10 11 12 13 14 15 16 17 18 19 20 21 22
000
FTUS43 KMPX 170500
TAFSTC
TAF
KSTC 170520Z 1706/1806 31009KT P6SM SCT020
      TEMPO 1707/1711 P6SM -SN BKN020
     FM171100 32006KT P6SM BKN020
     FM171800 34005KT P6SM SCT020 BKN250
     FM172200 01004KT P6SM FEW025 SCT250
     FM180300 05003KT P6SM SCT250=

USA.gov is the U.S. government's official web portal to all federal, state and local government web resources and services.